• Join FlightAware (Why Join?)
  • Login
  • US Flag 
12:42AM EDT


 

Airport Tracker/Info


-or-


 

Live Flight TrackerFlight Track Log ✈ N319EE ✈ 30-Dec-2013 ✈ KHPN - KPWM

Flight Track Log - Related Links

Times and Time Zones

All times are in EST time to prevent confusion due to time zone crossing. See the N319EE flight status page for this flight to view local times or setup timezone preferences in your user account.

Time Position Orientation Groundspeed Altitude Reporting Facility
EST Latitude Longitude Course Direction KTS MPH feet Rate Location/Type
02:39PM 41.0892 -73.7264 281° West 141 162 1,500  Level Boston Center
02:40PM 41.1000 -73.8000 281° West 152 175 4,900 2,460 Climbing New York TRACON
02:41PM 41.1167 -73.8333 304° West 160 184 7,000 1,980 Climbing New York TRACON
02:43PM 41.1731 -73.7233 56° Northeast 228 262 10,600 1,920 Climbing Boston Center
02:44PM 41.2031 -73.6414 64° Northeast 245 282 12,500 2,040 Climbing Boston Center
02:45PM 41.2361 -73.5497 64° Northeast 256 295 14,800 1,680 Climbing Boston Center
02:46PM 41.2675 -73.4594 65° Northeast 268 308 16,000 540 Climbing Boston Center
02:47PM 41.3078 -73.3458 65° Northeast 338 389 16,000  Level Boston Center
02:48PM 41.3658 -73.2364 55° Northeast 353 406 16,100 480 Climbing Boston Center
02:49PM 41.4447 -73.1858 26° Northeast 315 362 17,000 420 Climbing Boston Center
02:50PM 41.5269 -73.1333 26° Northeast 327 376 17,000  Level Boston Center
02:51PM 41.6156 -73.0758 26° Northeast 329 379 17,000  Level Boston Center
02:52PM 41.6981 -73.0222 26° Northeast 327 376 17,100  Climbing Boston Center
02:53PM 41.7811 -72.9672 26° Northeast 330 380 17,000 -60 Descending Boston Center
02:54PM 41.8642 -72.9114 27° Northeast 333 383 17,000  Level Boston Center
02:55PM 41.9475 -72.8556 26° Northeast 332 382 17,100  Climbing Boston Center
02:56PM 42.0306 -72.8011 26° Northeast 331 381 17,000  Descending Boston Center
02:57PM 42.1206 -72.7419 26° Northeast 332 382 17,100  Climbing Boston Center
02:58PM 42.2019 -72.6878 26° Northeast 326 375 17,100  Level Boston Center
02:59PM 42.2828 -72.6331 27° Northeast 325 374 17,100  Level Boston Center
03:00PM 42.3642 -72.5811 25° Northeast 328 377 17,100  Level Boston Center
03:01PM 42.4356 -72.5025 39° Northeast 369 425 17,100  Level Boston Center
03:02PM 42.5042 -72.4150 43° Northeast 348 400 17,100  Level Boston Center
03:03PM 42.5722 -72.3267 44° Northeast 342 394 17,100  Level Boston Center
03:04PM 42.6503 -72.2242 44° Northeast 342 394 17,100  Level Boston Center
03:06PM 42.7183 -72.1344 44° Northeast 341 392 17,100 -300 Level Boston Center
03:07PM 42.7872 -72.0436 44° Northeast 344 396 16,500 -840 Descending Boston Center
03:08PM 42.8661 -71.9417 43° Northeast 360 414 15,500 -1,200 Descending Boston Center
03:09PM 42.9367 -71.8475 44° Northeast 355 409 14,200 -1,320 Descending Boston Center
03:10PM 43.0050 -71.7586 44° Northeast 342 394 12,900 -1,260 Descending Boston Center
03:11PM 43.0700 -71.6708 45° Northeast 330 380 11,700 -960 Descending Boston Center
03:12PM 43.1339 -71.5844 45° Northeast 323 372 11,000 -360 Descending Boston Center
03:13PM 43.1986 -71.4978 44° Northeast 303 349 11,000  Level Boston Center
03:14PM 43.2558 -71.4208 44° Northeast 290 334 11,000  Level Boston Center
03:15PM 43.3125 -71.3439 45° Northeast 287 330 11,000  Level Boston Center
03:16PM 43.3697 -71.2669 44° Northeast 288 331 11,000  Level Boston Center
03:17PM 43.4275 -71.1889 44° Northeast 290 334 11,100  Climbing Boston Center
03:18PM 43.4769 -71.0917 55° Northeast 294 338 11,000 -300 Descending Boston Center
03:19PM 43.5067 -70.9842 69° East 300 345 10,500 -960 Descending Boston Center
03:20PM 43.5375 -70.8689 70° East 317 365 9,100 -1,440 Descending Boston Center
03:21PM 43.5597 -70.7450 76° East 317 365 7,600 -1,320 Descending Boston Center
03:22PM 43.5783 -70.6336 77° East 302 348 6,500 -1,020 Descending Boston Center
03:23PM 43.5697 -70.5225 96° East 296 341 5,600 -780 Descending Boston Center
03:24PM 43.5578 -70.4064 98° East 286 329 4,900 -840 Descending Boston Center
03:25PM 43.5494 -70.3150 97° East 247 284 4,000 -960 Descending Boston Center
03:26PM 43.5478 -70.2378 92° East 207 238 3,000 -300 Descending Boston Center
03:27PM 43.5650 -70.1683 71° East 201 231 3,400 -60 Climbing Boston Center
03:28PM 43.6133 -70.1575 North 180 207 2,900 -900 Descending Boston Center
03:29PM 43.6394 -70.2111 304° West 159 183 1,600 -1,140 Descending Boston Center
03:30PM 43.6422 -70.2672 274° West 147 169 600 -780 Descending Boston Center
03:31PM 43.6456 -70.3117 276° West 140 161 100 -540 Descending Boston Center